Crescent Mills, California
Current Conditions -  °F | °C
As of 11:48 AM on Monday 26 Jan 2015 (Local Time) from KCIC Reporting Station
Broken Clouds Broken Clouds  
Wind Chill: 54°   Ceiling: 25000
Heat Index: 54°   Visibility: 10mi
Dew Point: 48°   Wind: 7mph
Humidity: 82%   Direction: 310°NW
Pressure: 30.04"   Gusts: NA
Location:  40.1°N, 120.91°W
Report Text: KCIC 261948Z 31006KT 10SM SCT180 BKN250 12/09 A3004
Loading
Personal Weather Stations






























Interactive Weather Map New forecast layout! Learn more

10-Day Weather Forecast

Advertisements
Track Severe Weather on mobile